createdAt,value
2023-04-03T00:01:42.790Z,65.00
2023-04-03T00:04:09.927Z,65.70
2023-04-03T00:06:36.980Z,65.10
2023-04-03T00:09:04.262Z,66.40
2023-04-03T00:11:31.264Z,67.20
2023-04-03T00:13:58.264Z,69.10
2023-04-03T00:16:25.201Z,68.00
2023-04-03T00:18:52.232Z,69.20
2023-04-03T00:21:19.188Z,70.10
2023-04-03T00:23:46.195Z,71.30
2023-04-03T00:26:13.273Z,70.30
2023-04-03T00:28:41.083Z,72.00
2023-04-03T00:31:08.048Z,73.10
2023-04-03T00:33:36.130Z,72.90
2023-04-03T00:36:13.089Z,75.80
2023-04-03T00:38:40.185Z,76.20
2023-04-03T00:41:07.583Z,76.90
2023-04-03T00:43:34.582Z,77.40
2023-04-03T00:46:01.861Z,77.20
2023-04-03T00:48:41.905Z,76.00
2023-04-03T00:51:14.368Z,77.40
2023-04-03T00:53:47.429Z,76.20
2023-04-03T00:56:16.585Z,76.80
2023-04-03T00:59:05.391Z,77.40
2023-04-03T01:01:32.918Z,78.30
2023-04-03T01:04:01.149Z,78.40
2023-04-03T01:06:32.110Z,78.80
2023-04-03T01:09:05.284Z,78.70
2023-04-03T01:11:32.345Z,78.30
2023-04-03T01:14:02.795Z,79.10
2023-04-03T01:16:32.158Z,79.80
2023-04-03T01:19:00.230Z,79.80
2023-04-03T01:21:54.987Z,78.40
2023-04-03T01:24:37.415Z,80.60
2023-04-03T01:27:08.161Z,79.10
2023-04-03T01:29:35.396Z,79.20
2023-04-03T01:32:03.238Z,80.40
2023-04-03T01:34:31.140Z,80.70
2023-04-03T01:36:59.039Z,79.80
2023-04-03T01:39:26.119Z,82.10
2023-04-03T01:41:53.135Z,80.90
2023-04-03T01:44:30.848Z,82.60
2023-04-03T01:46:57.961Z,82.90
2023-04-03T01:49:26.887Z,82.30
2023-04-03T01:51:53.938Z,80.90
2023-04-03T01:54:20.898Z,81.30
2023-04-03T01:56:47.917Z,84.10
2023-04-03T01:59:18.090Z,84.00
2023-04-03T02:01:46.336Z,84.40
2023-04-03T02:04:13.909Z,86.10
2023-04-03T02:06:41.621Z,85.00
2023-04-03T02:09:08.635Z,84.60
2023-04-03T02:11:35.902Z,83.10
2023-04-03T02:14:03.002Z,83.00
2023-04-03T02:16:30.172Z,85.70
2023-04-03T02:18:57.318Z,83.90
2023-04-03T02:21:24.771Z,85.70
2023-04-03T02:23:51.701Z,86.20
2023-04-03T02:26:19.677Z,87.90
2023-04-03T02:28:46.921Z,85.60
2023-04-03T02:31:13.946Z,86.50
2023-04-03T02:33:42.794Z,87.80
2023-04-03T02:36:11.711Z,88.30
2023-04-03T02:38:41.763Z,88.90
2023-04-03T02:41:11.496Z,90.10
2023-04-03T02:43:39.264Z,89.40
2023-04-03T02:46:07.788Z,88.40
2023-04-03T02:48:35.089Z,88.80
2023-04-03T02:51:02.293Z,89.70
2023-04-03T02:53:29.268Z,89.90
2023-04-03T02:55:56.632Z,90.20
2023-04-03T02:58:23.600Z,90.10
2023-04-03T03:00:51.436Z,90.20
2023-04-03T03:03:18.591Z,90.10
2023-04-03T03:05:45.535Z,89.70
2023-04-03T03:08:12.507Z,90.00
2023-04-03T03:10:39.773Z,90.00
2023-04-03T03:13:08.060Z,90.00
2023-04-03T03:15:34.986Z,90.00
2023-04-03T03:18:03.244Z,90.00
2023-04-03T03:20:30.483Z,90.40
2023-04-03T03:22:58.678Z,90.30
2023-04-03T03:25:25.652Z,90.40
2023-04-03T03:27:52.571Z,90.10
2023-04-03T03:30:19.640Z,89.30
2023-04-03T03:32:47.125Z,90.00
2023-04-03T03:35:14.427Z,89.90
2023-04-03T03:37:41.423Z,89.90
2023-04-03T03:40:09.245Z,89.90
2023-04-03T03:42:38.101Z,90.10
2023-04-03T03:45:05.787Z,89.80
2023-04-03T03:47:32.865Z,89.70
2023-04-03T03:49:59.948Z,90.10
2023-04-03T03:52:27.403Z,90.20
2023-04-03T03:54:55.169Z,90.40
2023-04-03T03:57:22.410Z,90.50
2023-04-03T03:59:50.167Z,90.20
2023-04-03T04:02:19.137Z,90.70
2023-04-03T04:04:47.064Z,90.60
2023-04-03T04:07:14.436Z,90.90
2023-04-03T04:09:41.757Z,91.20
2023-04-03T04:12:09.733Z,90.70
2023-04-03T04:14:38.205Z,90.70
2023-04-03T04:17:07.028Z,91.00
2023-04-03T04:19:34.504Z,90.90
2023-04-03T04:22:01.651Z,90.80
2023-04-03T04:24:30.480Z,91.00
2023-04-03T04:26:58.062Z,90.90
2023-04-03T04:29:25.888Z,90.70
2023-04-03T04:31:53.494Z,90.70
2023-04-03T04:34:22.103Z,90.70
2023-04-03T04:36:49.133Z,91.00
2023-04-03T04:39:16.325Z,91.60
2023-04-03T04:41:43.350Z,91.40
2023-04-03T04:44:10.625Z,91.30
2023-04-03T04:46:38.453Z,91.00
2023-04-03T04:49:06.772Z,91.20
2023-04-03T04:51:41.095Z,91.20
2023-04-03T04:54:17.139Z,91.30
2023-04-03T04:56:46.123Z,91.80
2023-04-03T04:59:13.711Z,91.70
2023-04-03T05:01:41.521Z,91.80
2023-04-03T05:04:14.000Z,92.20
2023-04-03T05:06:41.397Z,92.80
2023-04-03T05:09:13.439Z,93.20
2023-04-03T05:11:43.578Z,92.40
2023-04-03T05:14:11.257Z,93.00
2023-04-03T05:16:38.357Z,93.10
2023-04-03T05:19:05.558Z,92.30
2023-04-03T05:21:33.737Z,92.40
2023-04-03T05:24:05.556Z,92.70
2023-04-03T05:26:34.851Z,92.60
2023-04-03T05:29:02.935Z,92.30
2023-04-03T05:31:30.825Z,92.30
2023-04-03T05:33:58.538Z,92.30
2023-04-03T05:36:27.426Z,91.90
2023-04-03T05:38:59.718Z,91.70
2023-04-03T05:41:27.101Z,91.60
2023-04-03T05:43:54.248Z,91.60
2023-04-03T05:46:23.428Z,92.10
2023-04-03T05:48:54.595Z,92.10
2023-04-03T05:51:27.284Z,92.00
2023-04-03T05:54:02.583Z,91.60
2023-04-03T05:56:30.834Z,91.50
2023-04-03T05:58:58.122Z,91.60
2023-04-03T06:01:26.390Z,91.60
2023-04-03T06:03:53.795Z,91.70
2023-04-03T06:06:21.171Z,92.10
2023-04-03T06:08:48.106Z,92.50
2023-04-03T06:11:15.147Z,91.90
2023-04-03T06:13:42.161Z,91.90
2023-04-03T06:16:12.765Z,91.50
2023-04-03T06:18:40.371Z,91.60
2023-04-03T06:21:08.929Z,91.40
2023-04-03T06:23:35.952Z,91.60
2023-04-03T06:26:02.945Z,91.60
2023-04-03T06:28:30.170Z,91.80
2023-04-03T06:30:57.295Z,91.60
2023-04-03T06:33:24.313Z,91.60
2023-04-03T06:35:51.901Z,91.60
2023-04-03T06:38:20.214Z,91.50
2023-04-03T06:40:48.256Z,90.90
2023-04-03T06:43:15.530Z,91.60
2023-04-03T06:45:42.626Z,91.60
2023-04-03T06:48:09.690Z,91.20
2023-04-03T06:50:36.758Z,91.40
2023-04-03T06:53:04.745Z,91.00
2023-04-03T06:55:33.126Z,90.70
2023-04-03T06:58:00.459Z,90.70
2023-04-03T07:00:27.572Z,90.80
2023-04-03T07:02:54.700Z,90.90
2023-04-03T07:05:21.735Z,87.80
2023-04-03T07:07:48.735Z,86.50
2023-04-03T07:10:15.972Z,83.80
2023-04-03T07:12:43.242Z,81.80
2023-04-03T07:15:10.662Z,78.90
2023-04-03T07:17:37.860Z,75.10
2023-04-03T07:20:05.370Z,75.40
2023-04-03T07:22:32.336Z,71.80
2023-04-03T07:25:00.242Z,66.60
2023-04-03T07:27:27.384Z,70.80
2023-04-03T07:29:55.599Z,70.80
2023-04-03T07:32:23.752Z,68.50
2023-04-03T07:34:50.918Z,69.10
2023-04-03T07:37:19.078Z,67.50
2023-04-03T07:39:46.253Z,60.90
2023-04-03T07:42:13.754Z,62.80
2023-04-03T07:44:41.553Z,51.40
2023-04-03T07:47:09.023Z,60.40
2023-04-03T07:49:39.179Z,64.80
2023-04-03T07:52:06.651Z,53.50
2023-04-03T07:54:33.679Z,56.50
2023-04-03T07:57:01.727Z,43.10
2023-04-03T07:59:28.747Z,38.70
2023-04-03T08:01:55.784Z,41.70
2023-04-03T08:04:22.991Z,40.20
2023-04-03T08:06:50.043Z,39.40
2023-04-03T08:09:17.121Z,23.50
2023-04-03T08:11:44.442Z,38.20
2023-04-03T08:14:16.658Z,38.00
2023-04-03T08:16:47.691Z,38.00
2023-04-03T08:19:25.392Z,22.60
2023-04-03T08:21:54.178Z,33.20
2023-04-03T08:24:21.302Z,15.80
2023-04-03T08:26:48.328Z,37.70
2023-04-03T08:29:15.278Z,19.10
2023-04-03T08:31:42.239Z,18.20
2023-04-03T08:34:09.848Z,14.70
2023-04-03T08:36:37.033Z,22.00
2023-04-03T08:39:04.328Z,30.20
2023-04-03T08:41:34.822Z,22.00
2023-04-03T08:44:46.433Z,24.50
2023-04-03T08:47:51.552Z,9.50
2023-04-03T08:50:20.783Z,8.40
2023-04-03T08:52:53.289Z,14.00
2023-04-03T08:55:25.013Z,12.00
2023-04-03T08:58:08.077Z,18.70
2023-04-03T09:01:06.919Z,11.10
2023-04-03T09:03:38.580Z,12.00
2023-04-03T09:06:14.927Z,17.80
2023-04-03T09:08:53.091Z,20.80
2023-04-03T09:11:25.225Z,20.30
2023-04-03T09:14:00.842Z,24.50
2023-04-03T09:16:49.422Z,17.00
2023-04-03T09:19:38.154Z,18.60
2023-04-03T09:22:22.323Z,17.00
2023-04-03T09:24:57.306Z,18.70
2023-04-03T09:27:26.871Z,21.10
2023-04-03T09:29:55.105Z,20.90
2023-04-03T09:32:35.666Z,23.50
2023-04-03T09:35:20.579Z,25.10
2023-04-03T09:38:00.895Z,27.00
2023-04-03T09:40:27.943Z,26.80
2023-04-03T09:43:15.574Z,30.20
2023-04-03T09:45:43.105Z,27.70
2023-04-03T09:48:16.292Z,29.50
2023-04-03T09:50:56.692Z,28.90
2023-04-03T09:53:27.921Z,28.80
2023-04-03T09:55:54.942Z,30.40
2023-04-03T09:58:31.394Z,30.00
2023-04-03T10:01:03.888Z,26.30
2023-04-03T10:03:37.567Z,29.00
2023-04-03T10:06:05.168Z,27.70
2023-04-03T10:08:33.382Z,29.10
2023-04-03T10:11:17.949Z,29.60
2023-04-03T10:13:57.926Z,24.60
2023-04-03T10:16:37.627Z,24.70
2023-04-03T10:19:32.714Z,22.60
2023-04-03T10:22:05.972Z,23.30
2023-04-03T10:25:10.117Z,26.50
2023-04-03T10:27:46.123Z,26.40
2023-04-03T10:30:25.058Z,23.60
2023-04-03T10:33:23.201Z,21.60
2023-04-03T10:36:12.942Z,23.50
2023-04-03T10:38:39.986Z,20.80
2023-04-03T10:41:17.778Z,20.10
2023-04-03T10:43:53.445Z,19.50
2023-04-03T10:46:43.309Z,21.30
2023-04-03T10:49:12.258Z,21.30
2023-04-03T10:51:43.018Z,13.70
2023-04-03T10:54:18.962Z,16.50
2023-04-03T10:56:57.992Z,10.60
2023-04-03T10:59:34.344Z,12.90
2023-04-03T11:02:30.433Z,16.50
2023-04-03T11:05:12.292Z,11.30
2023-04-03T11:07:40.839Z,10.30
2023-04-03T11:10:16.445Z,10.80
2023-04-03T11:12:49.529Z,10.60
2023-04-03T11:15:18.446Z,12.40
2023-04-03T11:18:12.003Z,11.50
2023-04-03T11:20:39.094Z,11.80
2023-04-03T11:23:35.534Z,7.80
2023-04-03T11:26:20.232Z,6.30
2023-04-03T11:28:47.426Z,5.40
2023-04-03T11:31:46.888Z,7.80
2023-04-03T11:34:41.805Z,6.10
2023-04-03T11:37:30.077Z,7.20
2023-04-03T11:40:06.196Z,5.20
2023-04-03T11:42:40.696Z,7.40
2023-04-03T11:45:23.054Z,4.90
2023-04-03T11:47:51.902Z,7.80
2023-04-03T11:50:39.179Z,6.80
2023-04-03T11:53:11.786Z,3.00
2023-04-03T11:55:51.073Z,4.60
2023-04-03T11:58:19.609Z,5.30
2023-04-03T12:00:52.606Z,8.80
2023-04-03T12:03:28.674Z,6.50
2023-04-03T12:06:18.863Z,6.00
2023-04-03T12:08:50.712Z,4.70
2023-04-03T12:11:32.769Z,9.20
2023-04-03T12:13:59.712Z,10.80
2023-04-03T12:16:39.083Z,6.20
2023-04-03T12:19:15.290Z,7.30
2023-04-03T12:21:45.979Z,6.40
2023-04-03T12:24:18.937Z,7.50
2023-04-03T12:26:58.355Z,7.70
2023-04-03T12:29:34.978Z,5.30
2023-04-03T12:32:07.655Z,6.70
2023-04-03T12:35:04.709Z,4.70
2023-04-03T12:38:02.142Z,5.00
2023-04-03T12:40:58.112Z,7.30
2023-04-03T12:44:02.910Z,5.80
2023-04-03T12:46:43.908Z,3.70
2023-04-03T12:49:36.813Z,5.30
2023-04-03T12:52:22.059Z,4.20
2023-04-03T12:54:49.071Z,5.00
2023-04-03T12:57:25.712Z,5.70
2023-04-03T12:59:52.824Z,6.20
2023-04-03T13:02:29.473Z,7.40
2023-04-03T13:04:59.100Z,5.30
2023-04-03T13:07:34.384Z,4.60
2023-04-03T13:10:20.714Z,5.70
2023-04-03T13:12:55.772Z,3.50
2023-04-03T13:15:26.134Z,4.70
2023-04-03T13:17:54.048Z,6.60
2023-04-03T13:20:26.954Z,4.40
2023-04-03T13:22:53.982Z,5.90
2023-04-03T13:25:21.577Z,5.20
2023-04-03T13:27:48.572Z,7.10
2023-04-03T13:30:26.660Z,7.80
2023-04-03T13:32:54.386Z,5.40
2023-04-03T13:35:33.504Z,6.50
2023-04-03T13:38:03.258Z,5.60
2023-04-03T13:40:38.016Z,6.80
2023-04-03T13:43:24.714Z,6.80
2023-04-03T13:45:58.150Z,5.70
2023-04-03T13:48:25.613Z,4.70
2023-04-03T13:51:04.610Z,7.20
2023-04-03T13:53:32.339Z,5.40
2023-04-03T13:56:05.313Z,7.30
2023-04-03T13:58:33.054Z,5.90
2023-04-03T14:01:09.348Z,7.40
2023-04-03T14:03:42.309Z,5.50
2023-04-03T14:06:11.718Z,7.40
2023-04-03T14:08:43.533Z,7.30
2023-04-03T14:11:30.801Z,7.40
2023-04-03T14:14:01.092Z,6.30
2023-04-03T14:16:30.714Z,5.60
2023-04-03T14:18:57.831Z,7.30
2023-04-03T14:21:24.971Z,8.50
2023-04-03T14:23:52.090Z,6.80
2023-04-03T14:26:21.930Z,8.00
2023-04-03T14:28:49.746Z,7.50
2023-04-03T14:31:17.194Z,6.30
2023-04-03T14:33:44.229Z,7.30
2023-04-03T14:36:26.438Z,7.30
2023-04-03T14:38:54.159Z,7.10
2023-04-03T14:41:22.565Z,9.10
2023-04-03T14:43:49.802Z,9.10
2023-04-03T14:46:42.973Z,9.30
2023-04-03T14:49:24.143Z,7.30
2023-04-03T14:51:51.780Z,8.30
2023-04-03T14:54:22.732Z,6.00
2023-04-03T14:56:49.730Z,5.50
2023-04-03T14:59:18.640Z,6.90
2023-04-03T15:01:45.911Z,5.90
2023-04-03T15:04:17.328Z,7.10
2023-04-03T15:06:44.995Z,4.70
2023-04-03T15:09:32.263Z,4.30
2023-04-03T15:11:59.668Z,3.80
2023-04-03T15:14:36.198Z,3.90
2023-04-03T15:17:08.061Z,4.20
2023-04-03T15:19:39.001Z,3.40
2023-04-03T15:22:06.129Z,4.40
2023-04-03T15:24:33.087Z,4.10
2023-04-03T15:27:00.890Z,1.60
2023-04-03T15:29:29.345Z,1.00
2023-04-03T15:31:56.890Z,1.00
2023-04-03T15:34:24.013Z,3.00
2023-04-03T15:36:54.009Z,3.90
2023-04-03T15:39:22.006Z,1.90
2023-04-03T15:41:49.195Z,2.40
2023-04-03T15:44:18.784Z,3.60
2023-04-03T15:46:46.920Z,1.60
2023-04-03T15:49:14.067Z,2.50
2023-04-03T15:51:41.114Z,2.90
2023-04-03T15:54:08.100Z,4.50
2023-04-03T15:56:35.122Z,6.70
2023-04-03T15:59:02.249Z,5.70
2023-04-03T16:01:29.374Z,6.20
2023-04-03T16:03:56.481Z,6.60
2023-04-03T16:06:23.710Z,6.80
2023-04-03T16:08:50.815Z,2.90
2023-04-03T16:11:17.811Z,1.00
2023-04-03T16:13:44.885Z,1.00
2023-04-03T16:16:11.883Z,1.90
2023-04-03T16:18:38.956Z,5.50
2023-04-03T16:21:06.760Z,6.50
2023-04-03T16:23:33.796Z,7.40
2023-04-03T16:26:00.913Z,8.50
2023-04-03T16:28:27.935Z,10.30
2023-04-03T16:30:54.899Z,11.00
2023-04-03T16:33:23.154Z,10.90
2023-04-03T16:35:50.889Z,11.00
2023-04-03T16:38:19.891Z,9.00
2023-04-03T16:40:47.165Z,9.80
2023-04-03T16:43:14.157Z,6.30
2023-04-03T16:45:41.285Z,7.30
2023-04-03T16:48:08.593Z,9.90
2023-04-03T16:50:35.729Z,10.40
2023-04-03T16:53:04.080Z,10.40
2023-04-03T16:55:31.198Z,9.10
2023-04-03T16:57:58.200Z,10.50
2023-04-03T17:00:25.160Z,10.00
2023-04-03T17:02:52.256Z,9.10
2023-04-03T17:05:19.357Z,10.10
2023-04-03T17:07:46.367Z,9.70
2023-04-03T17:10:13.450Z,9.30
2023-04-03T17:12:40.547Z,7.10
2023-04-03T17:15:08.087Z,7.10
2023-04-03T17:17:36.344Z,7.10
2023-04-03T17:20:04.111Z,7.10
2023-04-03T17:22:31.208Z,7.10
2023-04-03T17:24:58.358Z,6.50
2023-04-03T17:27:25.567Z,7.60
2023-04-03T17:29:52.561Z,6.90
2023-04-03T17:32:19.807Z,9.70
2023-04-03T17:34:48.037Z,9.40
2023-04-03T17:37:15.225Z,10.10
2023-04-03T17:39:42.261Z,7.90
2023-04-03T17:42:09.204Z,7.10
2023-04-03T17:44:36.291Z,9.40
2023-04-03T17:47:04.684Z,11.10
2023-04-03T17:49:33.491Z,11.10
2023-04-03T17:52:00.545Z,9.50
2023-04-03T17:54:27.589Z,9.70
2023-04-03T17:56:54.596Z,11.00
2023-04-03T17:59:21.652Z,9.10
2023-04-03T18:01:48.873Z,10.00
2023-04-03T18:04:16.253Z,11.30
2023-04-03T18:06:47.482Z,11.70
2023-04-03T18:09:18.840Z,12.70
2023-04-03T18:11:46.671Z,12.80
2023-04-03T18:14:14.740Z,14.70
2023-04-03T18:16:41.765Z,14.60
2023-04-03T18:19:21.050Z,15.30
2023-04-03T18:21:49.738Z,15.30
2023-04-03T18:24:18.047Z,15.70
2023-04-03T18:26:46.781Z,16.60
2023-04-03T18:29:13.722Z,15.60
2023-04-03T18:31:41.894Z,17.00
2023-04-03T18:34:08.919Z,16.10
2023-04-03T18:36:35.917Z,17.00
2023-04-03T18:39:04.010Z,17.20
2023-04-03T18:41:32.320Z,19.20
2023-04-03T18:44:00.019Z,19.30
2023-04-03T18:46:27.029Z,19.40
2023-04-03T18:48:54.220Z,20.80
2023-04-03T18:51:21.419Z,20.00
2023-04-03T18:53:48.417Z,19.20
2023-04-03T18:56:16.412Z,20.00
2023-04-03T18:58:43.398Z,19.60
2023-04-03T19:01:10.938Z,22.90
2023-04-03T19:03:38.155Z,23.10
2023-04-03T19:06:05.435Z,22.40
2023-04-03T19:08:32.503Z,22.80
2023-04-03T19:10:59.652Z,24.60
2023-04-03T19:13:28.283Z,24.50
2023-04-03T19:15:59.102Z,24.50
2023-04-03T19:18:27.256Z,22.50
2023-04-03T19:20:57.681Z,24.50
2023-04-03T19:23:24.967Z,24.50
2023-04-03T19:26:03.477Z,25.40
2023-04-03T19:28:30.699Z,27.20
2023-04-03T19:30:58.443Z,24.40
2023-04-03T19:33:25.670Z,25.50
2023-04-03T19:35:52.677Z,25.90
2023-04-03T19:38:19.738Z,25.30
2023-04-03T19:40:46.916Z,24.90
2023-04-03T19:43:14.595Z,27.10
2023-04-03T19:45:41.857Z,26.20
2023-04-03T19:48:09.025Z,27.10
2023-04-03T19:50:36.104Z,27.40
2023-04-03T19:53:03.163Z,26.90
2023-04-03T19:55:32.801Z,26.00
2023-04-03T19:58:00.026Z,26.90
2023-04-03T20:00:27.457Z,26.30
2023-04-03T20:02:54.483Z,28.60
2023-04-03T20:05:21.720Z,28.50
2023-04-03T20:07:48.856Z,28.50
2023-04-03T20:10:16.288Z,29.30
2023-04-03T20:12:43.364Z,28.80
2023-04-03T20:15:10.804Z,29.20
2023-04-03T20:17:37.906Z,28.60
2023-04-03T20:20:05.570Z,28.90
2023-04-03T20:22:32.891Z,28.90
2023-04-03T20:25:06.106Z,30.00
2023-04-03T20:27:34.793Z,29.70
2023-04-03T20:30:04.028Z,29.30
2023-04-03T20:32:31.739Z,29.50
2023-04-03T20:35:04.390Z,30.50
2023-04-03T20:37:32.020Z,31.20
2023-04-03T20:39:58.940Z,31.80
2023-04-03T20:42:26.369Z,33.30
2023-04-03T20:44:53.326Z,33.30
2023-04-03T20:47:20.467Z,33.30
2023-04-03T20:49:47.430Z,34.20
2023-04-03T20:52:14.400Z,34.10
2023-04-03T20:54:41.519Z,33.70
2023-04-03T20:57:08.584Z,34.30
2023-04-03T20:59:36.033Z,35.00
2023-04-03T21:02:03.063Z,35.60
2023-04-03T21:04:45.416Z,36.80
2023-04-03T21:07:49.597Z,38.00
2023-04-03T21:10:54.280Z,38.00
2023-04-03T21:14:01.256Z,39.40
2023-04-03T21:16:28.186Z,41.20
2023-04-03T21:19:09.421Z,42.00
2023-04-03T21:21:39.778Z,44.10
2023-04-03T21:24:10.243Z,44.30
2023-04-03T21:26:38.355Z,45.90
2023-04-03T21:29:08.566Z,46.40
2023-04-03T21:31:47.684Z,46.90
2023-04-03T21:34:17.891Z,51.30
2023-04-03T21:36:45.359Z,46.20
2023-04-03T21:39:12.449Z,53.40
2023-04-03T21:41:39.619Z,47.40
2023-04-03T21:44:07.277Z,51.50
2023-04-03T21:46:34.326Z,48.70
2023-04-03T21:49:01.561Z,48.70
2023-04-03T21:51:29.039Z,52.20
2023-04-03T21:53:56.482Z,51.70
2023-04-03T21:56:24.490Z,54.50
2023-04-03T21:58:51.901Z,55.20
2023-04-03T22:01:19.467Z,55.80
2023-04-03T22:03:47.088Z,56.30
2023-04-03T22:06:15.754Z,55.40
2023-04-03T22:08:42.967Z,57.30
2023-04-03T22:11:12.963Z,57.10
2023-04-03T22:13:40.293Z,57.00
2023-04-03T22:16:07.741Z,55.90
2023-04-03T22:18:36.226Z,58.90
2023-04-03T22:21:03.314Z,58.20
2023-04-03T22:23:30.669Z,56.70
2023-04-03T22:26:02.164Z,59.90
2023-04-03T22:28:30.046Z,57.20
2023-04-03T22:30:57.329Z,58.10
2023-04-03T22:33:24.434Z,60.00
2023-04-03T22:35:51.726Z,59.00
2023-04-03T22:38:18.895Z,61.30
2023-04-03T22:40:45.972Z,62.40
2023-04-03T22:43:12.950Z,62.70
2023-04-03T22:45:49.253Z,63.60
2023-04-03T22:48:16.971Z,64.30
2023-04-03T22:50:44.095Z,64.20
2023-04-03T22:53:11.379Z,64.80
2023-04-03T22:55:38.511Z,64.60
2023-04-03T22:58:05.971Z,65.70
2023-04-03T23:00:33.223Z,63.50
2023-04-03T23:03:01.822Z,63.40
2023-04-03T23:05:29.266Z,65.10
2023-04-03T23:07:56.257Z,66.70
2023-04-03T23:10:23.441Z,67.50
2023-04-03T23:12:50.548Z,67.60
2023-04-03T23:15:19.577Z,67.50
2023-04-03T23:17:49.260Z,67.50
2023-04-03T23:20:16.761Z,68.30
2023-04-03T23:22:44.817Z,67.50
2023-04-03T23:25:11.862Z,69.00
2023-04-03T23:27:38.776Z,67.40
2023-04-03T23:30:06.802Z,67.40
2023-04-03T23:32:33.828Z,67.50
2023-04-03T23:35:00.943Z,69.60
2023-04-03T23:37:27.926Z,70.40
2023-04-03T23:39:54.894Z,70.10
2023-04-03T23:42:22.223Z,67.80
2023-04-03T23:44:49.226Z,70.00
2023-04-03T23:47:16.560Z,72.00
2023-04-03T23:49:43.517Z,70.90
2023-04-03T23:52:10.500Z,71.90
2023-04-03T23:54:37.475Z,72.40
2023-04-03T23:57:04.501Z,71.20
2023-04-03T23:59:31.437Z,69.60
